Time;durP1;ratioP1;P1;durP2;ratioP2;P2;SDS_P1;SDS_P2;PMS_P1;PMS_P2;Temp;Humidity;BMP_temperature;BMP_pressure;BME280_temperature;BME280_humidity;BME280_pressure;Samples;Min_cycle;Max_cycle;Signal;HPM_P1;HPM_P2
2022/02/20 00:01:24;;;;;;;;;2.50;1.50;;;;;10.37;58.29;101367.03;5045711;28;45390;-52
2022/02/20 00:03:49;;;;;;;;;2.00;1.50;;;;;10.34;58.67;101367.03;5049056;28;45561;-48
2022/02/20 00:06:15;;;;;;;;;5.50;2.00;;;;;10.34;58.49;101364.41;5052677;28;45238;-53
2022/02/20 00:08:40;;;;;;;;;4.25;2.00;;;;;10.31;58.61;101371.41;5049933;28;45286;-48
2022/02/20 00:11:06;;;;;;;;;1.00;1.00;;;;;10.33;58.50;101367.91;5045015;28;45275;-53
2022/02/20 00:13:31;;;;;;;;;2.00;1.00;;;;;10.34;58.60;101364.41;5048427;28;45512;-53
2022/02/20 00:15:57;;;;;;;;;3.25;2.00;;;;;10.33;58.63;101365.28;5052345;28;46231;-53
2022/02/20 00:18:22;;;;;;;;;3.00;3.00;;;;;10.35;58.85;101375.78;5038275;28;45235;-52
2022/02/20 00:20:49;;;;;;;;;1.00;1.00;;;;;10.34;58.69;101360.88;5043601;28;45314;-51
2022/02/20 00:23:18;;;;;;;;;1.75;1.75;;;;;10.33;58.75;101361.78;5048247;28;45301;-53
2022/02/20 00:25:45;;;;;;;;;2.25;1.00;;;;;10.31;58.73;101380.16;5051017;28;47291;-53
2022/02/20 00:28:11;;;;;;;;;2.00;1.00;;;;;10.34;58.81;101368.78;5039174;28;45232;-52
2022/02/20 00:30:36;;;;;;;;;2.25;2.00;;;;;10.31;58.84;101360.91;5052720;28;45436;-52
2022/02/20 00:33:02;;;;;;;;;2.00;2.00;;;;;10.32;58.94;101365.28;5039338;28;45240;-51
2022/02/20 00:35:28;;;;;;;;;2.25;1.50;;;;;10.29;58.95;101352.16;5042082;28;46077;-52
2022/02/20 00:37:55;;;;;;;;;1.50;1.00;;;;;10.28;59.08;101359.16;5048963;28;45244;-50
2022/02/20 00:40:21;;;;;;;;;1.75;1.75;;;;;10.27;59.16;101364.44;5048318;28;45318;-53
2022/02/20 00:42:47;;;;;;;;;6.50;5.00;;;;;10.28;59.27;101372.31;5049717;28;45381;-50
2022/02/20 00:45:12;;;;;;;;;4.00;3.00;;;;;10.24;59.00;101352.19;5045254;28;46609;-52
2022/02/20 00:47:37;;;;;;;;;1.50;1.00;;;;;10.29;59.34;101371.44;5048683;28;45431;-53
2022/02/20 00:50:03;;;;;;;;;6.00;2.00;;;;;10.32;59.24;101370.53;5052122;28;45363;-53
2022/02/20 00:52:29;;;;;;;;;3.00;2.00;;;;;10.33;59.26;101354.78;5049967;28;45323;-50
2022/02/20 00:54:54;;;;;;;;;2.00;2.00;;;;;10.31;59.47;101367.03;5047750;28;45647;-53
2022/02/20 00:57:21;;;;;;;;;3.25;2.00;;;;;10.35;59.27;101366.16;5051694;28;45297;-50
2022/02/20 00:59:47;;;;;;;;;2.25;2.25;;;;;10.33;59.39;101360.03;5051445;28;45255;-54
2022/02/20 01:02:12;;;;;;;;;2.00;2.00;;;;;10.34;59.30;101364.41;5037001;28;45640;-53
2022/02/20 01:04:37;;;;;;;;;1.00;1.00;;;;;10.31;59.50;101368.78;5055461;28;46240;-53
2022/02/20 01:07:03;;;;;;;;;3.25;1.00;;;;;10.35;59.50;101362.63;5053765;28;45267;-51
2022/02/20 01:09:29;;;;;;;;;4.50;1.50;;;;;10.37;59.72;101371.44;5048560;28;45385;-52
2022/02/20 01:11:54;;;;;;;;;2.00;2.00;;;;;10.35;59.60;101366.16;5050531;28;45515;-50
2022/02/20 01:14:20;;;;;;;;;2.75;2.25;;;;;10.36;59.51;101360.06;5054421;28;45454;-50
2022/02/20 01:16:45;;;;;;;;;3.50;2.00;;;;;10.40;59.57;101360.91;5042103;28;45377;-49
2022/02/20 01:19:10;;;;;;;;;5.00;2.00;;;;;10.40;59.82;101358.28;5054221;28;45419;-54
2022/02/20 01:21:36;;;;;;;;;3.25;1.50;;;;;10.39;59.70;101365.28;5042200;28;45471;-53
2022/02/20 01:24:01;;;;;;;;;4.50;1.00;;;;;10.37;59.66;101359.16;5054667;28;45973;-52
2022/02/20 01:26:27;;;;;;;;;2.75;2.00;;;;;10.39;59.95;101362.66;5044385;28;45401;-52
2022/02/20 01:28:52;;;;;;;;;3.25;3.00;;;;;10.42;59.95;101355.66;5056495;28;45388;-53
2022/02/20 01:31:17;;;;;;;;;3.75;2.50;;;;;10.43;59.94;101363.53;5051220;28;45467;-51
2022/02/20 01:33:43;;;;;;;;;2.00;2.00;;;;;10.44;59.86;101354.78;5045632;28;45348;-51
2022/02/20 01:36:08;;;;;;;;;2.25;2.00;;;;;10.46;59.96;101365.28;5049313;28;45327;-51
2022/02/20 01:38:34;;;;;;;;;3.50;2.00;;;;;10.46;59.79;101353.00;5048476;28;45260;-52
2022/02/20 01:40:59;;;;;;;;;2.50;2.00;;;;;10.47;59.98;101360.00;5048691;28;45421;-51
2022/02/20 01:43:25;;;;;;;;;3.75;3.00;;;;;10.46;60.03;101366.13;5054706;28;45213;-54
2022/02/20 01:45:50;;;;;;;;;3.00;2.00;;;;;10.44;60.25;101360.03;5050950;28;45291;-52
2022/02/20 01:48:16;;;;;;;;;3.50;2.75;;;;;10.48;59.98;101368.78;5048098;28;45502;-53
2022/02/20 01:50:42;;;;;;;;;4.75;2.75;;;;;10.47;60.28;101374.91;5052649;28;45584;-54
2022/02/20 01:53:09;;;;;;;;;8.50;2.00;;;;;10.45;60.58;101395.91;5054620;28;45249;-53
2022/02/20 01:55:35;;;;;;;;;1.00;1.00;;;;;10.44;60.40;101367.91;5050975;28;45277;-51
2022/02/20 01:58:00;;;;;;;;;3.00;2.25;;;;;10.46;60.42;101374.03;5047956;28;45576;-53
2022/02/20 02:00:26;;;;;;;;;3.00;2.00;;;;;10.47;60.28;101359.16;5042087;28;45403;-53
2022/02/20 02:02:51;;;;;;;;;4.25;4.00;;;;;10.52;60.33;101357.38;5040706;28;45840;-50
2022/02/20 02:05:16;;;;;;;;;2.50;2.00;;;;;10.50;60.48;101348.59;5052013;28;45434;-52
2022/02/20 02:07:42;;;;;;;;;3.00;2.00;;;;;10.50;60.45;101340.72;5054784;28;45249;-52
2022/02/20 02:10:08;;;;;;;;;3.50;1.50;;;;;10.53;60.33;101338.09;5049070;28;45897;-53
2022/02/20 02:12:35;;;;;;;;;6.00;2.25;;;;;10.53;60.35;101348.59;5047586;28;46882;-53
2022/02/20 02:15:07;;;;;;;;;5.75;2.50;;;;;10.56;60.42;101345.94;5050174;28;45727;-54
2022/02/20 02:17:33;;;;;;;;;2.75;1.50;;;;;10.54;60.37;101335.47;5054369;28;45324;-52
2022/02/20 02:19:58;;;;;;;;;2.25;2.00;;;;;10.57;60.41;101339.81;5052168;28;45564;-52
2022/02/20 02:22:27;;;;;;;;;5.50;2.25;;;;;10.57;60.51;101353.81;5047472;28;45347;-53
2022/02/20 02:24:54;;;;;;;;;3.00;3.00;;;;;10.56;60.57;101357.34;5049537;28;45222;-51
2022/02/20 02:27:20;;;;;;;;;3.00;1.00;;;;;10.53;60.49;101359.13;5042423;28;45398;-54
2022/02/20 02:29:47;;;;;;;;;4.50;3.00;;;;;10.55;60.36;101354.72;5050948;28;45601;-54
2022/02/20 02:32:14;;;;;;;;;5.50;2.25;;;;;10.53;60.44;101367.00;5045965;28;48319;-53
2022/02/20 02:34:41;;;;;;;;;3.75;3.25;;;;;10.52;60.67;101344.22;5048135;28;45333;-53
2022/02/20 02:37:07;;;;;;;;;5.75;2.00;;;;;10.58;60.76;101357.34;5054200;28;45340;-52
2022/02/20 02:39:33;;;;;;;;;2.25;2.25;;;;;10.56;60.65;101360.00;5050495;28;45665;-54
2022/02/20 02:41:59;;;;;;;;;5.25;4.25;;;;;10.58;60.72;101344.19;5044883;28;46038;-53
2022/02/20 02:44:25;;;;;;;;;4.75;3.00;;;;;10.57;60.61;101343.31;5049405;28;45418;-52
2022/02/20 02:46:51;;;;;;;;;5.00;3.50;;;;;10.55;60.79;101337.22;5054158;28;45315;-53
2022/02/20 02:49:16;;;;;;;;;5.50;2.50;;;;;10.56;60.57;101344.22;5052257;28;45322;-53
2022/02/20 02:51:42;;;;;;;;;4.00;2.50;;;;;10.54;60.76;101343.34;5047067;28;45299;-53
2022/02/20 02:54:15;;;;;;;;;2.25;2.00;;;;;10.51;60.92;101355.63;5047315;28;45339;-53
2022/02/20 02:56:40;;;;;;;;;4.00;2.50;;;;;10.52;60.75;101354.75;5054230;28;45506;-52
2022/02/20 02:59:06;;;;;;;;;3.75;2.00;;;;;10.57;60.84;101371.34;5040495;28;45465;-52
2022/02/20 03:01:32;;;;;;;;;4.75;3.50;;;;;10.56;60.64;101367.88;5037791;28;47056;-54
2022/02/20 03:03:57;;;;;;;;;5.25;3.00;;;;;10.58;60.85;101359.97;5040320;28;45347;-52
2022/02/20 03:06:24;;;;;;;;;3.50;3.50;;;;;10.54;60.93;101361.75;5052576;28;45525;-54
2022/02/20 03:08:50;;;;;;;;;2.75;2.00;;;;;10.57;60.94;101371.34;5040007;28;45306;-53
2022/02/20 03:11:16;;;;;;;;;6.50;2.50;;;;;10.57;60.97;101352.97;5052323;28;46281;-54
2022/02/20 03:13:42;;;;;;;;;3.75;2.25;;;;;10.55;61.03;101363.50;5040084;28;45319;-53
2022/02/20 03:16:07;;;;;;;;;5.25;3.75;;;;;10.53;61.00;101351.25;5052898;28;45375;-53
2022/02/20 03:18:33;;;;;;;;;4.00;2.00;;;;;10.47;60.98;101338.97;5052996;28;45179;-54
2022/02/20 03:21:00;;;;;;;;;5.00;3.75;;;;;10.54;61.14;101345.06;5046653;28;46207;-53
2022/02/20 03:23:26;;;;;;;;;4.00;2.00;;;;;10.53;60.89;101343.34;5047138;28;45473;-53
2022/02/20 03:25:51;;;;;;;;;2.00;2.00;;;;;10.49;60.92;101344.22;5053132;28;45438;-53
2022/02/20 03:28:17;;;;;;;;;2.75;2.50;;;;;10.53;60.85;101345.97;5040057;28;45257;-51
2022/02/20 03:30:43;;;;;;;;;5.00;3.75;;;;;10.47;60.85;101346.00;5039791;28;46309;-53
2022/02/20 03:33:08;;;;;;;;;4.00;2.75;;;;;10.50;60.73;101364.38;5050650;28;45370;-53
2022/02/20 03:35:34;;;;;;;;;4.50;2.00;;;;;10.46;61.01;101365.28;5044190;28;45518;-53
2022/02/20 03:37:59;;;;;;;;;1.00;1.00;;;;;10.41;60.90;101365.28;5048816;28;45382;-52
2022/02/20 03:40:25;;;;;;;;;1.75;1.75;;;;;10.39;61.10;101383.69;5047879;28;47146;-53
2022/02/20 03:42:50;;;;;;;;;5.00;3.00;;;;;10.39;61.08;101374.94;5039763;28;45227;-53
2022/02/20 03:45:16;;;;;;;;;4.25;2.00;;;;;10.39;60.92;101369.69;5053211;28;45495;-53
2022/02/20 03:47:41;;;;;;;;;4.00;3.00;;;;;10.30;60.93;101352.16;5051039;28;45212;-53
2022/02/20 03:50:08;;;;;;;;;2.75;2.50;;;;;10.38;61.13;101363.53;5045920;28;46068;-53
2022/02/20 03:52:33;;;;;;;;;2.00;1.50;;;;;10.36;61.11;101372.31;5048610;28;45289;-52
2022/02/20 03:54:59;;;;;;;;;7.25;3.00;;;;;10.33;61.30;101374.94;5051396;28;45320;-53
2022/02/20 03:57:24;;;;;;;;;5.50;3.00;;;;;10.30;61.50;101364.41;5039935;28;45201;-52
2022/02/20 03:59:50;;;;;;;;;5.25;4.00;;;;;10.30;61.34;101365.31;5039379;28;45482;-52
2022/02/20 04:02:15;;;;;;;;;2.50;2.50;;;;;10.31;61.11;101367.03;5039526;28;45307;-53
2022/02/20 04:04:40;;;;;;;;;2.50;2.50;;;;;10.30;60.97;101375.81;5051630;28;45434;-52
2022/02/20 04:07:06;;;;;;;;;5.75;3.25;;;;;10.29;61.22;101370.53;5039619;28;45524;-52
2022/02/20 04:09:31;;;;;;;;;2.50;1.50;;;;;10.28;61.28;101360.94;5052206;28;46359;-58
2022/02/20 04:11:57;;;;;;;;;3.00;2.75;;;;;10.27;61.38;101365.28;5051014;28;45448;-52
2022/02/20 04:14:22;;;;;;;;;5.00;3.00;;;;;10.26;61.43;101353.03;5046074;28;45515;-52
2022/02/20 04:16:47;;;;;;;;;3.00;3.00;;;;;10.26;61.37;101353.03;5048481;28;45402;-52
2022/02/20 04:19:13;;;;;;;;;4.00;2.00;;;;;10.25;61.45;101349.53;5051350;28;47026;-52
2022/02/20 04:21:38;;;;;;;;;6.00;3.50;;;;;10.24;61.38;101347.78;5039307;28;45303;-49
2022/02/20 04:24:04;;;;;;;;;3.75;2.00;;;;;10.26;61.63;101355.66;5051046;28;45478;-52
2022/02/20 04:26:29;;;;;;;;;3.00;2.75;;;;;10.27;61.40;101351.31;5039395;28;45477;-52
2022/02/20 04:28:55;;;;;;;;;7.75;4.00;;;;;10.25;61.51;101348.66;5040317;28;45367;-53
2022/02/20 04:31:20;;;;;;;;;5.00;2.50;;;;;10.25;61.63;101338.16;5052345;28;45201;-50
2022/02/20 04:33:46;;;;;;;;;2.00;2.00;;;;;10.25;61.40;101335.53;5046364;28;45434;-54
2022/02/20 04:36:11;;;;;;;;;4.25;2.00;;;;;10.25;61.43;101353.91;5052066;28;45648;-54
2022/02/20 04:38:37;;;;;;;;;3.00;2.00;;;;;10.31;61.45;101355.66;5049203;28;45986;-53
2022/02/20 04:41:03;;;;;;;;;2.75;2.75;;;;;10.30;61.33;101353.91;5049006;28;45280;-51
2022/02/20 04:43:28;;;;;;;;;3.25;3.25;;;;;10.30;61.59;101356.53;5055960;28;45319;-52
2022/02/20 04:45:54;;;;;;;;;5.50;4.00;;;;;10.31;61.62;101360.91;5050880;28;45343;-53
2022/02/20 04:48:20;;;;;;;;;2.50;1.50;;;;;10.32;61.46;101347.75;5049231;28;45286;-52
2022/02/20 04:50:45;;;;;;;;;2.00;1.00;;;;;10.31;61.48;101342.53;5052586;28;45394;-50
2022/02/20 04:53:11;;;;;;;;;5.25;4.50;;;;;10.31;61.73;101339.91;5055515;28;45388;-50
2022/02/20 04:55:36;;;;;;;;;3.25;3.25;;;;;10.33;61.42;101332.88;5052778;28;45352;-53
2022/02/20 04:58:02;;;;;;;;;6.50;3.00;;;;;10.29;61.56;101321.53;5048712;28;45318;-51
2022/02/20 05:00:28;;;;;;;;;2.25;1.75;;;;;10.28;61.73;101317.13;5042304;28;45247;-49
2022/02/20 05:02:53;;;;;;;;;3.00;3.00;;;;;10.32;61.45;101305.72;5044047;28;45406;-50
2022/02/20 05:05:19;;;;;;;;;3.00;2.00;;;;;10.33;61.52;101293.50;5052011;28;45304;-53
2022/02/20 05:07:44;;;;;;;;;6.00;3.00;;;;;10.33;61.33;101304.00;5045591;28;45316;-50
2022/02/20 05:10:10;;;;;;;;;5.25;3.75;;;;;10.29;61.68;101300.50;5050180;28;45434;-49
2022/02/20 05:12:35;;;;;;;;;2.00;1.00;;;;;10.32;61.75;101292.59;5045994;28;45190;-53
2022/02/20 05:15:01;;;;;;;;;3.75;2.25;;;;;10.27;61.42;101288.25;5050956;28;45275;-48
2022/02/20 05:17:26;;;;;;;;;3.00;3.00;;;;;10.31;61.66;101293.47;5046052;28;45235;-51
2022/02/20 05:19:51;;;;;;;;;4.75;3.25;;;;;10.29;61.85;101289.09;5051356;28;45221;-52
2022/02/20 05:22:17;;;;;;;;;4.75;3.00;;;;;10.28;61.73;101280.38;5055318;28;45231;-51
2022/02/20 05:24:44;;;;;;;;;5.00;3.25;;;;;10.25;61.75;101293.50;5052544;28;45264;-53
2022/02/20 05:27:09;;;;;;;;;6.25;2.75;;;;;10.24;61.72;101287.38;5043974;28;46158;-52
2022/02/20 05:29:34;;;;;;;;;3.50;2.00;;;;;10.23;61.65;101283.00;5050283;28;45614;-53
2022/02/20 05:32:00;;;;;;;;;3.75;2.50;;;;;10.21;61.88;101271.66;5045306;28;45265;-52
2022/02/20 05:34:25;;;;;;;;;3.75;1.00;;;;;10.22;61.59;101265.47;5041662;28;45454;-53
2022/02/20 05:36:50;;;;;;;;;3.00;3.00;;;;;10.17;61.98;101264.63;5053943;28;46934;-53
2022/02/20 05:39:16;;;;;;;;;5.00;3.50;;;;;10.22;61.69;101285.63;5049809;28;45307;-50
2022/02/20 05:41:41;;;;;;;;;3.00;3.00;;;;;10.23;61.80;101285.63;5044548;28;45307;-52
2022/02/20 05:44:06;;;;;;;;;2.75;2.50;;;;;10.22;61.81;101280.38;5053150;28;45295;-52
2022/02/20 05:46:32;;;;;;;;;7.25;3.00;;;;;10.19;61.88;101291.78;5043302;28;45496;-52
2022/02/20 05:49:00;;;;;;;;;3.00;2.25;;;;;10.20;61.92;101298.78;5053183;27;45426;-51
2022/02/20 05:51:25;;;;;;;;;7.00;2.00;;;;;10.19;61.58;101298.78;5054879;28;45258;-55
2022/02/20 05:53:50;;;;;;;;;4.75;1.50;;;;;10.23;61.67;101313.66;5050279;28;45262;-52
2022/02/20 05:56:17;;;;;;;;;3.75;2.50;;;;;10.22;61.66;101317.16;5046673;28;46045;-52
2022/02/20 05:58:43;;;;;;;;;6.00;2.75;;;;;10.25;61.66;101320.66;5052146;28;45258;-53
2022/02/20 06:01:08;;;;;;;;;3.50;2.75;;;;;10.25;61.83;101325.91;5041899;28;45254;-53
2022/02/20 06:03:33;;;;;;;;;5.25;2.00;;;;;10.22;61.77;101331.16;5051381;28;45247;-54
2022/02/20 06:05:59;;;;;;;;;7.25;4.50;;;;;10.25;61.81;101327.63;5047713;28;45414;-51
2022/02/20 06:08:24;;;;;;;;;1.75;1.00;;;;;10.23;61.76;101330.28;5051693;28;45326;-50
2022/02/20 06:10:49;;;;;;;;;7.25;4.25;;;;;10.26;62.00;101342.53;5054639;28;45467;-52
2022/02/20 06:13:17;;;;;;;;;3.50;3.00;;;;;10.26;61.89;101329.41;5050982;28;45389;-48
2022/02/20 06:15:42;;;;;;;;;4.50;3.25;;;;;10.30;61.77;101332.88;5047852;28;46561;-51
2022/02/20 06:18:07;;;;;;;;;4.00;1.75;;;;;10.24;61.93;101333.81;5051141;28;45380;-52
2022/02/20 06:20:33;;;;;;;;;4.50;3.00;;;;;10.27;61.92;101325.03;5054575;28;45393;-53
2022/02/20 06:22:59;;;;;;;;;2.75;2.75;;;;;10.32;62.08;101312.75;5050937;28;45256;-54
2022/02/20 06:25:24;;;;;;;;;3.75;3.00;;;;;10.29;62.06;101318.88;5046837;28;46304;-52
2022/02/20 06:27:50;;;;;;;;;5.00;3.75;;;;;10.34;61.86;101321.47;5041008;28;45410;-52
2022/02/20 06:30:16;;;;;;;;;3.50;0.50;;;;;10.32;61.85;101321.50;5054334;28;45487;-49
2022/02/20 06:32:41;;;;;;;;;3.25;1.00;;;;;10.31;62.26;101314.47;5041205;28;45453;-53
2022/02/20 06:35:07;;;;;;;;;5.50;4.00;;;;;10.30;62.16;101304.88;5041129;28;46050;-51
2022/02/20 06:37:33;;;;;;;;;6.50;2.00;;;;;10.30;62.34;101297.00;5053328;28;45311;-50
2022/02/20 06:39:58;;;;;;;;;6.00;3.00;;;;;10.32;62.11;101303.09;5050081;28;45430;-53
2022/02/20 06:42:23;;;;;;;;;3.00;2.75;;;;;10.33;62.32;101306.63;5048534;28;45214;-51
2022/02/20 06:44:49;;;;;;;;;5.00;2.75;;;;;10.32;62.10;101297.00;5046989;28;46153;-52
2022/02/20 06:47:15;;;;;;;;;4.50;3.00;;;;;10.39;62.22;101299.59;5053486;28;45165;-52
2022/02/20 06:49:40;;;;;;;;;5.75;4.00;;;;;10.40;62.13;101298.72;5053950;28;45291;-54
2022/02/20 06:52:06;;;;;;;;;1.75;1.00;;;;;10.37;62.23;101290.84;5047358;28;45327;-54
2022/02/20 06:54:32;;;;;;;;;4.00;3.00;;;;;10.37;62.44;101285.59;5045448;28;47295;-52
2022/02/20 06:56:58;;;;;;;;;5.75;2.00;;;;;10.42;62.21;101300.50;5052988;28;45292;-53
2022/02/20 06:59:24;;;;;;;;;2.00;2.00;;;;;10.41;62.23;101302.22;5052937;28;45326;-54
2022/02/20 07:01:50;;;;;;;;;4.00;3.00;;;;;10.45;62.35;101287.31;5028307;28;45430;-54
2022/02/20 07:04:16;;;;;;;;;4.00;2.00;;;;;10.47;62.31;101283.81;5040033;28;45218;-54
2022/02/20 07:06:45;;;;;;;;;3.00;1.25;;;;;10.50;62.34;101293.44;5040410;28;45325;-52
2022/02/20 07:09:11;;;;;;;;;2.25;2.00;;;;;10.50;62.28;101291.69;5040119;28;45387;-53
2022/02/20 07:11:38;;;;;;;;;4.75;2.50;;;;;10.53;62.23;101290.78;5040168;28;45473;-50
2022/02/20 07:14:04;;;;;;;;;4.50;2.00;;;;;10.51;62.66;101289.91;5039862;28;46311;-53
2022/02/20 07:16:30;;;;;;;;;4.50;2.00;;;;;10.53;62.45;101296.91;5038871;28;45290;-51
2022/02/20 07:18:55;;;;;;;;;4.50;1.25;;;;;10.55;62.26;101307.41;5040120;28;45310;-55
2022/02/20 07:21:28;;;;;;;;;8.75;4.50;;;;;10.54;62.58;101309.19;5040060;28;45432;-52
2022/02/20 07:23:54;;;;;;;;;4.50;2.50;;;;;10.59;62.32;101332.81;5039491;28;46437;-54
2022/02/20 07:26:19;;;;;;;;;2.00;1.50;;;;;10.62;62.34;101342.44;5039732;28;45344;-53
2022/02/20 07:28:45;;;;;;;;;5.25;2.00;;;;;10.62;62.46;101353.81;5041967;28;45212;-51
2022/02/20 07:31:11;;;;;;;;;4.50;3.00;;;;;10.61;62.54;101352.06;5051760;28;45318;-53
2022/02/20 07:33:36;;;;;;;;;3.75;2.75;;;;;10.60;62.53;101344.19;5050701;28;45347;-53
2022/02/20 07:36:02;;;;;;;;;5.00;1.50;;;;;10.63;62.62;101350.31;5048420;28;45528;-52
2022/02/20 07:38:27;;;;;;;;;4.00;3.00;;;;;10.64;62.55;101330.16;5046362;28;45244;-52
2022/02/20 07:40:53;;;;;;;;;1.75;1.75;;;;;10.68;62.60;101330.13;5047698;28;45654;-52
2022/02/20 07:43:19;;;;;;;;;5.50;2.00;;;;;10.70;62.48;101336.25;5052986;28;45373;-52
2022/02/20 07:45:44;;;;;;;;;5.25;2.50;;;;;10.75;62.47;101325.69;5048966;28;45311;-52
2022/02/20 07:48:09;;;;;;;;;3.25;3.25;;;;;10.73;62.57;101327.50;5046471;28;45796;-49
2022/02/20 07:50:37;;;;;;;;;4.75;3.25;;;;;10.79;62.73;101334.44;5051119;28;45321;-49
2022/02/20 07:53:04;;;;;;;;;2.00;2.00;;;;;10.81;62.37;101338.81;5052611;28;47028;-49
2022/02/20 07:55:31;;;;;;;;;9.00;4.00;;;;;10.85;62.58;101348.44;5049256;28;45272;-51
2022/02/20 07:58:00;;;;;;;;;1.75;1.75;;;;;10.88;62.60;101350.19;5046164;28;45196;-51
2022/02/20 08:00:30;;;;;;;;;7.75;4.25;;;;;10.93;62.34;101352.78;5046041;28;45422;-50
2022/02/20 08:02:57;;;;;;;;;3.00;3.00;;;;;10.94;62.47;101370.31;5039092;28;46957;-49
2022/02/20 08:05:22;;;;;;;;;3.25;2.00;;;;;10.95;62.76;101366.81;5039618;28;45262;-50
2022/02/20 08:07:47;;;;;;;;;4.00;2.00;;;;;10.96;62.42;101373.81;5038194;28;45264;-50
2022/02/20 08:10:13;;;;;;;;;2.00;2.00;;;;;11.00;62.56;101391.31;5039385;28;45292;-50
2022/02/20 08:12:38;;;;;;;;;7.50;2.25;;;;;11.02;62.57;101386.94;5039295;28;46576;-50
2022/02/20 08:15:05;;;;;;;;;3.00;2.50;;;;;11.05;62.62;101387.75;5039530;28;45260;-51
2022/02/20 08:17:31;;;;;;;;;4.25;2.00;;;;;11.09;62.52;101374.59;5039628;28;45453;-50
2022/02/20 08:19:56;;;;;;;;;4.25;2.00;;;;;11.12;62.68;101349.16;5037855;28;45497;-50
2022/02/20 08:22:21;;;;;;;;;5.25;2.50;;;;;11.13;62.53;101342.13;5039307;28;45461;-49
2022/02/20 08:24:47;;;;;;;;;4.75;3.25;;;;;11.17;62.71;101338.59;5039058;28;45317;-49
2022/02/20 08:27:14;;;;;;;;;6.00;2.75;;;;;11.21;62.46;101342.97;5039279;28;45724;-50
2022/02/20 08:29:40;;;;;;;;;8.00;2.50;;;;;11.25;62.38;101349.06;5039387;28;45367;-48
2022/02/20 08:32:06;;;;;;;;;2.00;2.00;;;;;11.27;62.40;101358.72;5038999;28;45330;-52
2022/02/20 08:34:35;;;;;;;;;2.50;1.25;;;;;11.30;62.34;101348.16;5039057;28;45213;-50
2022/02/20 08:37:02;;;;;;;;;5.25;3.25;;;;;11.31;62.46;101356.94;5037856;28;45409;-52
2022/02/20 08:39:28;;;;;;;;;2.50;2.00;;;;;11.32;62.42;101340.22;5038686;28;45378;-52
2022/02/20 08:41:54;;;;;;;;;6.50;5.50;;;;;11.34;62.63;101323.53;5038801;28;47091;-52
2022/02/20 08:44:20;;;;;;;;;3.00;1.00;;;;;11.42;62.38;101328.78;5038981;28;45403;-51
2022/02/20 08:46:45;;;;;;;;;6.00;5.00;;;;;11.44;62.48;101332.25;5038912;28;45424;-52
2022/02/20 08:49:11;;;;;;;;;7.50;5.00;;;;;11.47;62.45;101318.19;5039216;28;45464;-52
2022/02/20 08:51:37;;;;;;;;;4.00;3.00;;;;;11.49;62.32;101317.28;5038823;28;45379;-48
2022/02/20 08:54:02;;;;;;;;;5.00;3.00;;;;;11.48;62.57;101327.81;5038546;28;45355;-49
2022/02/20 08:56:27;;;;;;;;;5.00;2.25;;;;;11.51;62.50;101320.78;5037731;28;45336;-48
2022/02/20 08:58:54;;;;;;;;;6.00;2.75;;;;;11.57;62.42;101319.84;5039198;28;45166;-51
2022/02/20 09:01:19;;;;;;;;;4.00;4.00;;;;;11.61;62.36;101333.84;5036559;28;47384;-52
2022/02/20 09:03:45;;;;;;;;;8.00;4.75;;;;;11.58;62.52;101313.69;5038869;28;45332;-52
2022/02/20 09:06:10;;;;;;;;;6.75;4.00;;;;;11.65;62.57;101311.91;5038844;28;45308;-49
2022/02/20 09:08:36;;;;;;;;;3.75;2.00;;;;;11.67;62.49;101308.38;5038752;28;45516;-52
2022/02/20 09:11:01;;;;;;;;;7.50;3.50;;;;;11.66;62.53;101329.41;5038200;28;45889;-50
2022/02/20 09:13:27;;;;;;;;;3.75;1.25;;;;;11.66;62.59;101321.50;5037338;28;45339;-51
2022/02/20 09:15:53;;;;;;;;;8.50;3.50;;;;;11.70;62.47;101333.78;5041468;28;45240;-51
2022/02/20 09:18:18;;;;;;;;;3.75;3.75;;;;;11.74;62.51;101324.09;5040744;28;45415;-53
2022/02/20 09:20:44;;;;;;;;;4.00;3.50;;;;;11.77;62.32;101347.75;5041962;28;45822;-52
2022/02/20 09:23:09;;;;;;;;;2.00;0.00;;;;;11.76;62.28;101330.19;5042091;28;45335;-55
2022/02/20 09:25:34;;;;;;;;;4.25;3.50;;;;;11.79;62.38;101311.75;5041970;28;45818;-56
2022/02/20 09:28:00;;;;;;;;;4.25;2.75;;;;;11.80;62.15;101308.25;5040629;28;45447;-52
2022/02/20 09:30:25;;;;;;;;;3.25;2.00;;;;;11.85;62.28;101312.56;5041801;28;45475;-53
2022/02/20 09:32:50;;;;;;;;;6.25;2.50;;;;;11.82;62.20;101306.44;5042019;28;45292;-52
2022/02/20 09:35:16;;;;;;;;;5.25;3.00;;;;;11.86;62.39;101311.69;5041849;28;45483;-53
2022/02/20 09:37:41;;;;;;;;;4.00;3.25;;;;;11.88;62.11;101295.84;5040503;28;45441;-49
2022/02/20 09:40:08;;;;;;;;;8.25;5.00;;;;;11.94;62.30;101295.78;5041145;28;45628;-50
2022/02/20 09:42:34;;;;;;;;;1.50;1.50;;;;;11.99;62.18;101298.41;5041761;28;45319;-49
2022/02/20 09:44:59;;;;;;;;;3.50;3.00;;;;;12.06;62.14;101280.75;5040153;28;45505;-49
2022/02/20 09:47:28;;;;;;;;;4.00;2.50;;;;;12.12;62.37;101289.47;5040420;28;45419;-48
2022/02/20 09:50:01;;;;;;;;;4.00;3.75;;;;;12.17;62.03;101292.91;5041274;28;46359;-50
2022/02/20 09:52:27;;;;;;;;;7.00;4.00;;;;;12.27;62.34;101280.50;5041206;28;45389;-50
2022/02/20 09:54:53;;;;;;;;;9.50;4.00;;;;;12.34;62.18;101270.78;5041485;28;45307;-51
2022/02/20 09:57:19;;;;;;;;;4.00;2.75;;;;;12.41;62.16;101267.13;5041421;28;45416;-53
2022/02/20 09:59:44;;;;;;;;;3.25;1.75;;;;;12.46;62.07;101259.19;5040018;28;46200;-49
2022/02/20 10:02:16;;;;;;;;;5.00;3.00;;;;;12.59;62.28;101258.13;5041386;28;45311;-50
2022/02/20 10:04:46;;;;;;;;;4.50;3.00;;;;;12.62;62.23;101255.44;5041383;28;45318;-48
2022/02/20 10:07:36;;;;;;;;;7.25;2.75;;;;;12.74;62.13;101272.84;5040049;28;45694;-50
2022/02/20 10:10:12;;;;;;;;;2.50;2.50;;;;;12.79;62.16;101283.31;5040791;28;46030;-48
2022/02/20 10:12:38;;;;;;;;;3.00;1.75;;;;;12.84;61.91;101282.38;5039515;28;45463;-52
2022/02/20 10:15:22;;;;;;;;;3.75;3.25;;;;;12.90;61.74;101291.94;5041419;28;45458;-49
2022/02/20 10:17:47;;;;;;;;;7.75;3.25;;;;;13.00;61.77;101285.66;5039849;28;45304;-47
2022/02/20 10:20:22;;;;;;;;;5.25;1.50;;;;;13.10;61.84;101301.31;5040956;28;46423;-51
2022/02/20 10:22:48;;;;;;;;;4.50;3.00;;;;;13.12;61.47;101334.72;5040829;28;45461;-49
2022/02/20 10:25:13;;;;;;;;;1.00;1.00;;;;;13.15;61.36;101275.72;5019657;28;45315;-51
2022/02/20 10:27:50;;;;;;;;;5.25;3.00;;;;;13.24;61.38;101296.69;5039098;28;45553;-52
2022/02/20 10:30:25;;;;;;;;;3.50;3.50;;;;;13.30;61.43;101303.63;5040688;28;45280;-50
2022/02/20 10:33:27;;;;;;;;;4.00;3.00;;;;;13.40;61.57;101289.41;5040794;28;45251;-52
2022/02/20 10:35:54;;;;;;;;;2.75;2.75;;;;;13.43;61.26;101257.69;5018690;28;45419;-52
2022/02/20 10:38:24;;;;;;;;;3.25;1.00;;;;;13.49;61.04;101270.75;5052336;28;45505;-50
2022/02/20 10:40:52;;;;;;;;;2.50;1.50;;;;;13.54;61.13;101272.47;5048911;28;45310;-48
2022/02/20 10:43:28;;;;;;;;;2.25;2.25;;;;;13.59;60.95;101268.84;5040253;28;45342;-50
2022/02/20 10:46:11;;;;;;;;;8.25;3.50;;;;;13.68;61.05;101285.41;5039524;28;45367;-49
2022/02/20 10:48:38;;;;;;;;;5.00;3.00;;;;;13.72;60.49;101268.59;5040318;28;45474;-51
2022/02/20 10:51:04;;;;;;;;;3.75;2.00;;;;;13.80;61.13;101272.84;5040697;28;45345;-49
2022/02/20 10:53:33;;;;;;;;;4.00;2.00;;;;;13.84;60.67;101281.59;5040115;28;45316;-46
2022/02/20 10:56:01;;;;;;;;;5.25;3.00;;;;;13.94;60.80;101288.44;5039096;28;45262;-47
2022/02/20 10:58:29;;;;;;;;;4.00;3.75;;;;;14.00;60.69;101284.81;5040208;28;45478;-46
2022/02/20 11:00:58;;;;;;;;;6.75;2.50;;;;;14.00;60.24;101312.97;5038929;28;47207;-47
2022/02/20 11:03:26;;;;;;;;;4.25;2.75;;;;;14.02;59.95;101300.63;5039315;28;45476;-50
2022/02/20 11:05:53;;;;;;;;;4.25;2.00;;;;;14.03;60.25;101294.44;5040532;28;45429;-50
2022/02/20 11:08:22;;;;;;;;;2.75;2.25;;;;;14.03;60.15;101273.31;5038791;28;46156;-50
2022/02/20 11:10:48;;;;;;;;;2.25;1.25;;;;;14.00;60.40;101276.88;5038484;28;47100;-46
2022/02/20 11:13:16;;;;;;;;;5.25;2.00;;;;;14.02;60.06;101258.34;5040009;28;45244;-49
2022/02/20 11:15:43;;;;;;;;;2.00;1.50;;;;;14.00;60.25;101245.19;5040419;28;45295;-50
2022/02/20 11:18:11;;;;;;;;;2.75;2.75;;;;;14.01;59.87;101243.38;5040191;28;45556;-51
2022/02/20 11:20:42;;;;;;;;;4.50;2.00;;;;;13.97;59.98;101240.81;5039893;28;46538;-47